Latest Weather Observations for Hindmarsh Island

IDS60801

Issued at 11:31 pm CST Sunday 25 September 2016 (issued every 30 minutes, with the page automatically refreshed every 10 minutes)

About weather observations | Map of weather stations | Latest weather observations for SA | Other Formats
Station Details ID: 023894 Name: HINDMARSH ISLAND AWS Lat: -35.52 Lon: 138.82 Height: 11.0 m
Data from the previous 72 hours. | See also: Recent months at Hindmarsh Island
Date/Time
CST
Temp
°C
App
Temp
°C
Dew
Point
°C
Rel
Hum
%
Delta-T
°C
Wind Press
QNH
hPa
Press
MSL
hPa
Rain since
9am
mm
Dir  Spd
km/h
Gust
km/h
Spd
kts
Gust
kts
25/11:30pm 9.4 6.0 6.1 80 1.5 N 13 15 7 8 1014.7 - 0.0
25/11:00pm 9.5 6.1 6.0 79 1.6 NNW 13 17 7 9 1014.9 - 0.0
25/10:30pm 9.9 6.9 6.1 77 1.8 NNW 11 13 6 7 1015.0 - 0.0
25/10:00pm 9.9 7.3 6.2 78 1.7 NW 9 13 5 7 1015.3 - 0.0
25/09:30pm 10.6 7.7 6.4 75 2.0 NNW 11 15 6 8 1015.0 - 0.0
25/09:00pm 10.2 7.3 6.4 77 1.8 NNW 11 13 6 7 1014.9 1014.9 0.0
25/08:30pm 10.8 8.2 6.2 73 2.1 NNW 9 15 5 8 1014.7 - 0.0
25/08:00pm 11.4 7.7 6.3 71 2.4 NNW 15 19 8 10 1014.7 - 0.0
25/07:30pm 11.8 8.2 6.7 71 2.4 NW 15 20 8 11 1014.5 - 0.0
25/07:00pm 12.0 8.8 6.7 70 2.5 NW 13 19 7 10 1014.1 - 0.0
25/06:30pm 12.2 8.2 6.5 68 2.7 NW 17 26 9 14 1013.8 - 0.0
25/06:00pm 12.6 8.1 6.2 65 3.0 WNW 19 28 10 15 1013.8 1013.7 0.0
25/05:30pm 13.1 7.2 6.0 62 3.4 WNW 26 37 14 20 1013.5 - 0.0
25/05:00pm 14.3 9.5 5.7 56 4.1 NW 20 24 11 13 1013.3 - 0.0
25/04:30pm 14.7 10.0 5.2 53 4.5 NW 19 26 10 14 1013.1 - 0.0
25/04:00pm 15.1 11.4 4.5 49 4.9 WNW 13 24 7 13 1012.9 - 0.0
25/03:30pm 14.5 11.7 6.8 60 3.7 SSE 11 17 6 9 1012.9 - 0.0
25/03:00pm 14.9 11.2 6.5 57 4.1 S 15 20 8 11 1013.2 1013.2 0.0
25/02:30pm 14.6 10.4 5.9 56 4.2 S 17 20 9 11 1013.3 - 0.0
25/02:00pm 13.6 9.9 6.2 61 3.5 S 15 19 8 10 1013.6 - 0.0
25/01:30pm 14.4 9.6 4.4 51 4.6 SSW 19 22 10 12 1013.7 - 0.0
25/01:00pm 14.9 10.1 4.6 50 4.8 SSW 19 24 10 13 1013.9 - 0.0
25/12:30pm 15.1 10.1 3.6 46 5.2 SSW 19 24 10 13 1014.1 - 0.0
25/12:00pm 15.3 11.2 2.1 41 5.8 SSW 13 19 7 10 1014.4 1014.5 0.0
25/11:30am 14.1 9.3 5.7 57 4.0 SW 20 24 11 13 1014.8 - 0.0
25/11:00am 14.3 9.6 5.9 57 4.0 SSW 20 26 11 14 1014.9 - 0.0
25/10:30am 14.7 9.5 2.6 44 5.4 WSW 19 26 10 14 1015.3 - 0.0
25/10:00am 14.7 9.4 7.0 60 3.8 SW 24 28 13 15 1015.4 - 0.0
25/09:30am 14.3 9.2 3.2 47 5.0 WSW 19 24 10 13 1015.5 - 0.0
25/09:00am 13.2 9.0 5.6 60 3.6 W 17 20 9 11 1015.4 1015.5 1.2
25/08:30am 12.9 8.2 5.3 60 3.5 W 19 26 10 14 1015.5 - 1.2
25/08:00am 12.2 8.0 5.6 64 3.1 W 17 24 9 13 1015.2 - 1.2
25/07:30am 10.2 5.9 5.2 71 2.3 WNW 17 20 9 11 1015.0 - 1.2
25/07:00am 9.9 6.3 5.1 72 2.2 WNW 13 19 7 10 1014.3 - 1.2
25/06:30am 9.4 4.6 4.8 73 2.1 WNW 19 24 10 13 1014.1 - 1.2
25/06:00am 9.2 4.8 4.8 74 2.0 WNW 17 20 9 11 1013.7 1013.6 1.2
25/05:30am 9.2 5.1 4.6 73 2.0 WNW 15 20 8 11 1013.1 - 1.2
25/05:00am 9.3 5.3 4.9 74 2.0 W 15 19 8 10 1012.9 - 1.2
25/04:30am 9.6 5.2 5.0 73 2.1 WNW 17 22 9 12 1012.8 - 1.2
25/04:00am 9.2 5.2 5.0 75 1.9 WNW 15 17 8 9 1012.5 - 1.2
25/03:30am 8.8 4.8 5.0 77 1.7 WNW 15 20 8 11 1012.1 - 1.2
25/03:00am 9.0 5.0 4.8 75 1.9 WNW 15 20 8 11 1011.9 1011.8 1.2
25/02:30am 9.0 4.9 4.6 74 1.9 WNW 15 19 8 10 1012.0 - 1.2
25/02:00am 9.4 5.0 4.6 72 2.1 WNW 17 20 9 11 1012.2 - 1.2
25/01:30am 9.5 5.1 4.5 71 2.2 W 17 22 9 12 1012.2 - 1.2
25/01:00am 9.7 5.6 4.5 70 2.3 WNW 15 19 8 10 1012.2 - 1.2
25/12:30am 10.4 5.6 4.5 67 2.6 W 19 24 10 13 1012.3 - 1.2
25/12:00am 11.0 5.7 5.1 67 2.7 W 22 32 12 17 1012.3 1012.3 1.2
 
Date/Time
CST
Temp
°C
App
Temp
°C
Dew
Point
°C
Rel
Hum
%
Delta-T
°C
Wind Press
QNH
hPa
Press
MSL
hPa
Rain since
9am
mm
Dir  Spd
km/h
Gust
km/h
Spd
kts
Gust
kts
24/11:30pm 9.8 5.3 4.0 67 2.6 WNW 17 22 9 12 1012.2 - 1.2
24/11:00pm 9.6 5.0 3.8 67 2.5 WNW 17 20 9 11 1012.0 - 1.2
24/10:30pm 9.8 5.3 4.4 69 2.4 WNW 17 20 9 11 1011.9 - 1.2
24/10:00pm 11.0 5.8 5.3 68 2.6 W 22 33 12 18 1011.9 - 1.2
24/09:30pm 11.5 5.6 6.0 69 2.6 W 26 35 14 19 1011.7 - 1.2
24/09:00pm 11.9 6.4 5.8 66 2.8 WSW 24 35 13 19 1011.4 1011.4 1.2
24/08:30pm 12.1 5.8 5.7 65 3.0 WSW 28 41 15 22 1011.1 - 1.2
24/08:00pm 12.4 4.4 5.6 63 3.2 SW 37 46 20 25 1010.5 - 1.2
24/07:30pm 12.3 4.3 5.7 64 3.1 SW 37 48 20 26 1010.0 - 1.2
24/07:00pm 12.5 3.8 5.9 64 3.1 SW 41 52 22 28 1009.2 - 1.2
24/06:30pm 12.6 3.5 6.9 68 2.7 SW 44 54 24 29 1008.8 - 1.2
24/06:00pm 13.2 5.7 8.1 71 2.5 SW 37 46 20 25 1008.6 1008.6 1.2
24/05:30pm 13.3 5.6 7.1 66 3.0 SW 37 46 20 25 1008.2 - 1.2
24/05:00pm 13.1 5.1 7.5 69 2.7 SW 39 50 21 27 1007.5 - 1.2
24/04:30pm 13.8 6.1 8.6 71 2.6 SW 39 48 21 26 1006.9 - 1.2
24/04:00pm 13.8 6.3 9.6 76 2.2 SW 39 48 21 26 1006.6 - 1.2
24/03:30pm 14.5 6.7 9.7 73 2.5 SW 41 50 22 27 1006.0 - 1.2
24/03:00pm 13.9 8.0 8.9 72 2.5 SW 30 41 16 22 1005.8 1005.8 1.2
24/02:30pm 13.6 6.8 9.1 74 2.3 SW 35 43 19 23 1005.6 - 1.2
24/02:00pm 13.6 7.2 10.6 82 1.6 SW 35 43 19 23 1005.5 - 1.2
24/01:30pm 13.7 8.8 11.2 85 1.3 SW 28 39 15 21 1005.4 - 1.2
24/01:00pm 13.2 9.4 11.3 88 1.0 WSW 22 32 12 17 1005.5 - 0.8
24/12:30pm 13.8 9.0 11.5 86 1.2 SW 28 37 15 20 1005.4 - 0.8
24/12:00pm 14.8 11.1 11.4 80 1.8 WNW 22 28 12 15 1005.2 1005.1 0.8
24/11:30am 16.7 12.1 11.0 69 3.1 NW 26 35 14 19 1005.0 - 0.0
24/11:00am 15.9 10.9 11.1 73 2.6 NNW 28 41 15 22 1004.9 - 0.0
24/10:30am 15.5 11.2 10.7 73 2.5 NW 24 39 13 21 1005.3 - 0.0
24/10:00am 15.3 9.4 10.5 73 2.5 NW 32 43 17 23 1004.9 - 0.0
24/09:30am 15.5 9.4 10.5 72 2.6 NW 33 46 18 25 1005.0 - 0.0
24/09:03am 15.2 9.7 10.6 74 2.4 NNW 30 48 16 26 1005.0 - 0.0
24/09:00am 15.3 9.5 10.7 74 2.4 NNW 32 41 17 22 1005.0 1004.9 0.0
24/08:38am 15.8 9.8 10.8 72 2.7 NW 33 52 18 28 1004.6 - 0.0
24/08:33am 15.8 9.8 10.8 72 2.7 NW 33 52 18 28 1004.6 - 0.0
24/08:30am 15.8 9.8 10.8 72 2.7 NW 33 48 18 26 1004.5 - 0.0
24/08:05am 16.3 9.0 10.2 67 3.2 NNW 39 57 21 31 1004.7 - 0.0
24/08:00am 16.3 9.0 10.2 67 3.2 NNW 39 57 21 31 1004.7 - 0.0
24/07:37am 16.8 10.6 9.5 62 3.8 NNW 32 54 17 29 1004.6 - 0.0
24/07:32am 16.8 10.6 9.5 62 3.8 NNW 32 54 17 29 1004.6 - 0.0
24/07:30am 16.8 10.6 9.5 62 3.8 NNW 32 46 17 25 1004.6 - 0.0
24/07:10am 16.4 10.6 7.9 57 4.3 NNW 28 46 15 25 1004.2 - 0.0
24/07:05am 16.4 10.6 7.9 57 4.3 NNW 28 46 15 25 1004.2 - 0.0
24/07:00am 16.1 11.4 7.6 57 4.2 NNW 22 39 12 21 1004.2 - 0.0
24/06:30am 16.6 11.2 6.4 51 5.0 NNW 24 39 13 21 1004.0 - 0.0
24/06:00am 16.9 10.9 5.5 47 5.5 NNW 26 35 14 19 1003.8 1003.8 0.0
24/05:30am 17.1 10.7 5.4 46 5.6 NNW 28 41 15 22 1003.2 - 0.0
24/05:00am 17.5 12.6 5.1 44 6.0 NNW 20 30 11 16 1003.2 - 0.0
24/04:30am 17.1 11.9 5.4 46 5.6 NW 22 33 12 18 1002.9 - 0.0
24/04:00am 14.5 12.0 6.6 59 3.8 N 9 17 5 9 1003.2 - 0.0
24/03:30am 13.8 10.0 7.6 66 3.0 NNE 17 28 9 15 1003.4 - 0.0
24/03:00am 12.6 8.4 7.3 70 2.6 NNE 19 22 10 12 1003.8 1003.7 0.0
24/02:30am 13.1 8.7 7.5 69 2.7 NNE 20 26 11 14 1003.8 - 0.0
24/02:00am 12.1 7.7 7.6 74 2.2 NNE 20 28 11 15 1004.3 - 0.0
24/01:30am 11.7 6.6 7.6 76 2.0 NNE 24 32 13 17 1005.0 - 0.0
24/01:00am 11.3 6.2 7.6 78 1.8 NNE 24 32 13 17 1005.3 - 0.0
24/12:30am 11.0 6.3 7.7 80 1.6 N 22 28 12 15 1005.3 - 0.0
24/12:00am 10.8 6.7 8.0 83 1.4 N 19 24 10 13 1005.7 1005.7 0.0
 
Date/Time
CST
Temp
°C
App
Temp
°C
Dew
Point
°C
Rel
Hum
%
Delta-T
°C
Wind Press
QNH
hPa
Press
MSL
hPa
Rain since
9am
mm
Dir  Spd
km/h
Gust
km/h
Spd
kts
Gust
kts
23/11:30pm 10.7 7.3 7.6 81 1.5 NE 15 19 8 10 1005.9 - 0.0
23/11:00pm 11.0 7.3 8.0 82 1.5 NE 17 20 9 11 1006.3 - 0.0
23/10:30pm 11.3 8.4 8.3 82 1.5 N 13 15 7 8 1007.1 - 0.0
23/10:00pm 11.5 9.0 8.2 80 1.6 N 11 13 6 7 1007.0 - 0.0
23/09:30pm 12.2 9.7 8.3 77 1.9 N 11 13 6 7 1007.2 - 0.0
23/09:00pm 12.6 9.8 8.7 77 2.0 N 13 15 7 8 1007.3 1007.3 0.0
23/08:30pm 12.6 10.2 8.5 76 2.0 N 11 13 6 7 1007.6 - 0.0
23/08:00pm 12.6 10.2 8.5 76 2.0 E 11 13 6 7 1007.3 - 0.0
23/07:30pm 13.0 11.1 9.1 77 2.0 E 9 11 5 6 1007.3 - 0.0
23/07:00pm 13.9 12.2 9.7 76 2.2 ESE 9 11 5 6 1007.5 - 0.0
23/06:30pm 14.1 12.3 9.5 74 2.4 ESE 9 11 5 6 1007.4 - 0.0
23/06:00pm 14.9 12.8 9.9 72 2.6 SE 11 11 6 6 1007.3 1007.3 0.0
23/05:30pm 15.8 13.8 10.1 69 3.0 SSE 11 13 6 7 1007.4 - 0.0
23/05:00pm 16.5 13.8 10.4 67 3.2 S 15 17 8 9 1007.6 - 0.0
23/04:30pm 17.2 13.5 9.4 60 4.1 SSW 19 20 10 11 1007.6 - 0.0
23/04:00pm 17.7 13.9 9.8 60 4.2 SSW 20 22 11 12 1007.7 - 0.0
23/03:30pm 18.1 14.2 9.5 57 4.5 SSW 20 26 11 14 1007.7 - 0.0
23/03:00pm 18.5 14.5 9.0 54 5.0 SSW 20 22 11 12 1007.9 1007.9 0.0
23/02:30pm 20.3 17.4 8.0 45 6.4 NNW 13 22 7 12 1008.2 - 0.0
23/02:00pm 19.7 16.7 7.8 46 6.1 NE 13 20 7 11 1008.4 - 0.0
23/01:30pm 19.5 15.6 6.9 44 6.4 N 17 24 9 13 1009.1 - 0.0
23/01:00pm 19.6 15.9 8.0 47 6.0 NNE 17 24 9 13 1009.7 - 0.0
23/12:30pm 18.9 14.7 8.3 50 5.5 NE 20 28 11 15 1010.2 - 0.0
23/12:00pm 18.0 13.7 8.0 52 5.1 NE 20 28 11 15 1010.8 1010.9 0.0
23/11:30am 17.6 13.6 9.0 57 4.5 NNE 20 30 11 16 1011.5 - 0.0
23/11:00am 16.2 11.5 7.9 58 4.2 NNE 22 28 12 15 1012.0 - 0.0
23/10:30am 15.6 11.2 8.8 64 3.5 NNE 22 32 12 17 1012.6 - 0.0
23/10:00am 14.0 7.9 6.4 60 3.7 NNE 28 37 15 20 1012.8 - 0.0
23/09:30am 13.4 7.4 7.2 66 3.0 NNE 28 37 15 20 1013.2 - 0.0
23/09:00am 11.5 5.3 6.2 70 2.5 NNE 28 37 15 20 1013.9 1014.0 0.0
23/08:30am 11.0 5.6 6.4 73 2.2 NNE 24 35 13 19 1014.5 - 0.0
23/08:00am 9.7 5.0 6.1 78 1.7 NNE 20 28 11 15 1014.9 - 0.0
23/07:30am 8.9 4.1 5.8 81 1.4 NNE 20 28 11 15 1015.2 - 0.0
23/07:00am 7.3 2.5 4.6 83 1.2 NNE 19 24 10 13 1015.6 - 0.0
23/06:30am 6.9 2.5 4.9 87 0.9 NNE 17 19 9 10 1015.5 - 0.0
23/06:00am 5.2 0.5 3.1 86 0.9 NE 17 17 9 9 1015.6 1015.7 0.0
23/05:30am 5.1 1.1 3.0 86 0.9 NE 13 15 7 8 1015.9 - 0.0
23/05:00am 6.3 2.5 4.0 85 1.0 NNE 13 13 7 7 1016.0 - 0.0
23/04:30am 6.2 2.7 3.7 84 1.1 N 11 13 6 7 1016.1 - 0.0
23/04:00am 6.9 3.6 4.7 86 1.0 NNW 11 13 6 7 1016.4 - 0.0
23/03:30am 7.4 4.2 5.0 85 1.1 N 11 13 6 7 1016.1 - 0.0
23/03:00am 7.1 3.4 4.6 84 1.1 NNE 13 13 7 7 1016.1 1016.1 0.0
23/02:30am 7.0 3.7 4.3 83 1.2 NNE 11 13 6 7 1016.4 - 0.0
23/02:00am 8.4 6.2 5.3 81 1.4 N 6 7 3 4 1017.0 - 0.0
23/01:30am 8.4 6.0 5.2 80 1.4 NNW 7 9 4 5 1017.3 - 0.0
23/01:00am 8.4 5.1 4.6 77 1.7 NNE 11 13 6 7 1017.5 - 0.0
23/12:30am 7.4 3.2 3.6 77 1.6 ENE 15 15 8 8 1017.4 - 0.0
23/12:00am 7.5 3.3 3.7 77 1.6 ENE 15 17 8 9 1017.8 1017.9 0.0

Other Formats:

Comma delimited format used in spreadsheet applications
http://www.bom.gov.au/fwo/IDS60801/IDS60801.94677.axf

JavaScript Object Notation format (JSON) in row-major order
http://www.bom.gov.au/fwo/IDS60801/IDS60801.94677.json